Time;durP1;ratioP1;P1;durP2;ratioP2;P2;SDS_P1;SDS_P2;PMS_P1;PMS_P2;Temp;Humidity;BMP_temperature;BMP_pressure;BME280_temperature;BME280_humidity;BME280_pressure;Samples;Min_cycle;Max_cycle;Signal;HPM_P1;HPM_P2
2022/10/20 00:01:20;;;;;;;5.40;2.47;;;;;;;6.64;98.12;102282.16;6131392;23;20037;-70
2022/10/20 00:03:47;;;;;;;7.55;2.45;;;;;;;6.62;98.29;102281.41;6132028;23;20002;-70
2022/10/20 00:06:18;;;;;;;3.17;2.20;;;;;;;6.79;97.29;102283.88;6131473;23;20013;-71
2022/10/20 00:08:45;;;;;;;11.95;2.83;;;;;;;6.56;98.24;102281.78;6130675;23;20433;-70
2022/10/20 00:11:12;;;;;;;11.05;2.38;;;;;;;6.54;99.06;102275.66;6131311;23;20137;-70
2022/10/20 00:13:39;;;;;;;3.90;2.45;;;;;;;6.59;98.42;102273.53;6129805;23;20002;-70
2022/10/20 00:16:06;;;;;;;3.63;2.22;;;;;;;6.53;98.72;102285.56;6129913;23;20001;-71
2022/10/20 00:18:32;;;;;;;8.20;2.35;;;;;;;6.52;98.65;102285.66;6130769;23;20073;-71
2022/10/20 00:20:57;;;;;;;9.30;2.50;;;;;;;6.71;98.24;102283.47;6130208;23;20044;-70
2022/10/20 00:23:23;;;;;;;4.32;2.17;;;;;;;6.58;98.24;102276.31;6131985;23;20001;-70
2022/10/20 00:25:58;;;;;;;4.57;2.60;;;;;;;6.70;97.58;102272.81;6130243;23;20010;-70
2022/10/20 00:28:24;;;;;;;10.73;2.78;;;;;;;6.56;98.01;102260.25;6131820;23;20004;-70
2022/10/20 00:30:53;;;;;;;8.20;2.63;;;;;;;6.49;98.59;102258.94;6130091;23;20005;-71
2022/10/20 00:33:18;;;;;;;6.05;2.45;;;;;;;6.69;97.73;102263.88;6130128;23;20014;-71
2022/10/20 00:35:44;;;;;;;4.03;2.45;;;;;;;6.61;97.87;102260.84;6129855;23;20021;-70
2022/10/20 00:38:09;;;;;;;9.15;2.45;;;;;;;6.63;98.03;102261.59;6129763;23;20009;-70
2022/10/20 00:40:34;;;;;;;6.80;2.40;;;;;;;6.57;98.22;102263.81;6129552;23;20049;-70
2022/10/20 00:43:00;;;;;;;6.53;2.35;;;;;;;6.52;98.21;102264.13;6130094;23;20037;-71
2022/10/20 00:45:25;;;;;;;6.80;2.50;;;;;;;6.54;97.98;102262.19;6129653;23;20149;-70
2022/10/20 00:48:07;;;;;;;6.88;2.38;;;;;;;6.54;98.44;102251.44;6129898;23;20001;-71
2022/10/20 00:50:40;;;;;;;9.32;2.90;;;;;;;6.63;98.03;102250.81;6129371;23;20009;-70
2022/10/20 00:53:06;;;;;;;4.15;2.28;;;;;;;6.59;97.78;102254.69;6130156;23;20080;-71
2022/10/20 00:55:34;;;;;;;3.78;2.22;;;;;;;6.63;97.52;102245.44;6105523;23;20021;-71
2022/10/20 00:58:01;;;;;;;3.70;2.25;;;;;;;6.60;97.81;102234.88;6105312;23;20002;-71
2022/10/20 01:00:27;;;;;;;7.43;2.30;;;;;;;6.52;97.91;102239.91;6105323;23;19998;-70
2022/10/20 01:02:57;;;;;;;6.18;2.63;;;;;;;6.52;98.70;102231.84;6129655;23;19997;-70
2022/10/20 01:05:22;;;;;;;4.45;2.17;;;;;;;6.63;97.51;102234.69;6131327;23;20002;-70
2022/10/20 01:07:48;;;;;;;3.38;2.00;;;;;;;6.63;97.92;102234.69;6131002;23;20002;-70
2022/10/20 01:10:14;;;;;;;7.45;2.60;;;;;;;6.59;98.03;102226.94;6129446;23;20411;-70
2022/10/20 01:12:58;;;;;;;10.90;2.17;;;;;;;6.58;97.87;102228.72;6131841;23;20021;-70
2022/10/20 01:15:33;;;;;;;4.75;2.10;;;;;;;6.55;98.04;102220.88;6129698;23;20072;-70
2022/10/20 01:18:08;;;;;;;5.38;2.67;;;;;;;6.63;97.29;102213.16;6131235;23;20007;-70
2022/10/20 01:20:59;;;;;;;9.10;2.00;;;;;;;6.59;97.33;102216.16;6129260;23;20191;-70
2022/10/20 01:23:56;;;;;;;11.67;3.00;;;;;;;6.52;98.31;102215.69;6130047;23;20032;-70
2022/10/20 01:26:56;;;;;;;8.43;2.13;;;;;;;6.60;97.32;102202.59;6130641;23;20012;-70
2022/10/20 01:29:28;;;;;;;9.73;2.10;;;;;;;6.67;97.08;102193.16;6105299;23;20006;-70
2022/10/20 01:32:09;;;;;;;10.27;2.35;;;;;;;6.79;96.65;102197.75;6105253;23;20009;-71
2022/10/20 01:34:47;;;;;;;2.97;2.05;;;;;;;6.62;96.79;102197.09;6129313;23;20092;-70
2022/10/20 01:37:26;;;;;;;18.42;3.47;;;;;;;6.63;96.84;102194.31;6131161;23;20053;-70
2022/10/20 01:39:55;;;;;;;8.50;2.72;;;;;;;6.77;96.59;102199.66;6105340;23;20001;-70
2022/10/20 01:42:26;;;;;;;9.38;2.40;;;;;;;6.60;96.96;102197.22;6129504;23;20004;-70
2022/10/20 01:44:57;;;;;;;7.15;2.40;;;;;;;6.68;96.31;102192.19;6129267;23;20006;-71
2022/10/20 01:47:25;;;;;;;9.13;2.50;;;;;;;6.67;95.67;102187.78;6129713;23;20345;-70
2022/10/20 01:49:52;;;;;;;5.50;2.17;;;;;;;6.70;96.00;102176.78;6130640;23;20002;-70
2022/10/20 01:52:19;;;;;;;3.83;2.42;;;;;;;6.52;96.88;102183.41;6104645;23;20006;-70
2022/10/20 01:54:45;;;;;;;6.15;2.35;;;;;;;6.46;97.39;102183.81;6129633;23;20005;-70
2022/10/20 01:57:41;;;;;;;5.15;2.40;;;;;;;6.48;97.73;102176.47;6104341;23;19998;-70
2022/10/20 02:00:11;;;;;;;13.77;2.47;;;;;;;6.45;97.58;102165.91;6104932;23;20048;-70
2022/10/20 02:02:51;;;;;;;5.45;2.40;;;;;;;6.41;98.09;102167.09;6130576;23;20006;-70
2022/10/20 02:05:45;;;;;;;7.93;2.45;;;;;;;6.32;98.25;102164.97;6104132;23;20006;-70
2022/10/20 02:08:21;;;;;;;4.25;2.13;;;;;;;6.19;98.91;102154.13;6105107;23;20008;-70
2022/10/20 02:10:51;;;;;;;13.13;2.20;;;;;;;6.32;99.00;102170.34;6130663;23;20071;-70
2022/10/20 02:13:20;;;;;;;9.18;2.65;;;;;;;6.16;98.98;102152.53;6131126;23;20056;-70
2022/10/20 02:15:50;;;;;;;5.10;2.10;;;;;;;6.12;99.79;102148.28;6104684;23;19998;-70
2022/10/20 02:18:20;;;;;;;6.57;2.00;;;;;;;6.22;99.26;102144.06;6105117;23;20085;-70
2022/10/20 02:20:49;;;;;;;7.38;2.28;;;;;;;6.22;99.25;102144.06;6105338;23;20385;-70
2022/10/20 02:23:16;;;;;;;9.90;2.53;;;;;;;6.16;99.43;102144.47;6128393;23;20026;-72
2022/10/20 02:25:42;;;;;;;23.55;2.78;;;;;;;6.10;100.00;102134.09;6161137;23;20013;-74
2022/10/20 02:28:11;;;;;;;9.70;3.08;;;;;;;6.18;99.73;102130.91;6136774;23;20325;-74
2022/10/20 02:30:37;;;;;;;6.80;2.83;;;;;;;6.01;100.00;102118.56;6136273;23;20086;-73
2022/10/20 02:33:04;;;;;;;5.68;2.80;;;;;;;5.97;100.00;102125.09;6134162;23;20012;-74
2022/10/20 02:35:31;;;;;;;7.93;2.88;;;;;;;6.00;100.00;102116.84;6133747;23;20013;-72
2022/10/20 02:37:58;;;;;;;5.95;2.42;;;;;;;6.06;100.00;102105.66;6161561;23;20001;-73
2022/10/20 02:40:24;;;;;;;7.72;2.65;;;;;;;5.92;100.00;102108.38;6135913;23;20008;-74
2022/10/20 02:42:50;;;;;;;7.40;2.50;;;;;;;5.83;100.00;102103.56;6162045;23;20005;-74
2022/10/20 02:45:16;;;;;;;5.43;2.90;;;;;;;6.01;100.00;102107.81;6136495;23;20072;-73
2022/10/20 02:47:42;;;;;;;7.53;2.65;;;;;;;6.04;100.00;102118.34;6161378;23;20001;-72
2022/10/20 02:50:07;;;;;;;5.70;2.50;;;;;;;6.08;99.55;102119.88;6135809;23;20009;-72
2022/10/20 02:52:33;;;;;;;4.93;2.97;;;;;;;5.99;100.00;102120.47;6135629;23;20001;-73
2022/10/20 02:54:58;;;;;;;5.55;2.95;;;;;;;6.05;99.42;102127.28;6135869;23;20070;-73
2022/10/20 02:57:24;;;;;;;5.05;2.90;;;;;;;5.94;99.59;102118.09;6135418;23;20028;-73
2022/10/20 02:59:49;;;;;;;5.32;2.50;;;;;;;5.81;100.00;102118.94;6135781;23;20348;-75
2022/10/20 03:02:14;;;;;;;4.80;2.95;;;;;;;5.97;99.52;102125.09;6136050;23;20058;-72
2022/10/20 03:04:40;;;;;;;10.52;2.47;;;;;;;5.90;100.00;102121.03;6161700;23;20009;-73
2022/10/20 03:07:05;;;;;;;5.57;2.70;;;;;;;5.83;99.87;102119.69;6135640;23;20009;-74
2022/10/20 03:09:31;;;;;;;12.70;3.20;;;;;;;5.99;99.47;102109.72;6161824;23;20072;-74
2022/10/20 03:11:56;;;;;;;10.73;3.63;;;;;;;5.88;99.79;102112.22;6135871;23;20036;-73
2022/10/20 03:14:21;;;;;;;9.57;2.70;;;;;;;5.92;99.97;102108.38;6136042;23;20005;-75
2022/10/20 03:16:47;;;;;;;9.20;3.15;;;;;;;5.90;100.00;102104.91;6135577;23;19994;-73
2022/10/20 03:19:12;;;;;;;7.97;2.70;;;;;;;5.77;100.00;102103.94;6161857;23;20033;-73
2022/10/20 03:21:38;;;;;;;8.75;2.80;;;;;;;5.86;100.00;102103.34;6161464;23;20040;-74
2022/10/20 03:24:03;;;;;;;6.95;3.40;;;;;;;5.74;100.00;102105.03;6135621;23;20010;-73
2022/10/20 03:26:29;;;;;;;10.68;3.95;;;;;;;5.82;99.24;102096.47;6134980;23;19997;-72
2022/10/20 03:28:54;;;;;;;12.20;2.92;;;;;;;5.86;99.80;102095.28;6136066;23;20005;-74
2022/10/20 03:31:19;;;;;;;6.45;3.05;;;;;;;5.85;99.38;102085.50;6135387;23;20008;-73
2022/10/20 03:33:45;;;;;;;8.18;3.05;;;;;;;5.72;99.86;102097.03;6135567;23;20033;-74
2022/10/20 03:36:10;;;;;;;9.93;3.67;;;;;;;5.79;99.99;102091.28;6161387;23;20060;-74
2022/10/20 03:38:35;;;;;;;7.78;3.17;;;;;;;5.85;99.38;102089.06;6135835;23;20001;-75
2022/10/20 03:41:01;;;;;;;4.32;2.97;;;;;;;5.81;99.49;102084.00;6135614;23;20009;-74
2022/10/20 03:43:26;;;;;;;9.10;3.25;;;;;;;5.77;100.00;102087.81;6135747;23;20463;-75
2022/10/20 03:46:01;;;;;;;10.75;3.83;;;;;;;5.71;100.00;102073.81;6135246;23;20013;-75
2022/10/20 03:48:26;;;;;;;8.00;3.95;;;;;;;5.71;100.00;102079.19;6135577;23;20068;-75
2022/10/20 03:50:52;;;;;;;11.45;3.53;;;;;;;5.69;100.00;102081.13;6135455;23;20742;-75
2022/10/20 03:53:17;;;;;;;39.15;3.78;;;;;;;5.66;100.00;102085.81;6161746;23;20528;-71
2022/10/20 03:55:42;;;;;;;6.65;2.85;;;;;;;5.76;99.92;102080.72;6135585;23;19998;-75
2022/10/20 03:58:08;;;;;;;11.70;3.60;;;;;;;5.76;99.72;102078.91;6135328;23;20010;-74
2022/10/20 04:00:33;;;;;;;12.88;4.30;;;;;;;5.65;99.75;102084.94;6135076;23;19997;-75
2022/10/20 04:02:59;;;;;;;9.70;3.35;;;;;;;5.51;100.00;102066.16;6135792;23;20060;-75
2022/10/20 04:05:24;;;;;;;10.95;3.95;;;;;;;5.55;100.00;102073.06;6161473;23;20009;-73
2022/10/20 04:07:49;;;;;;;15.00;3.95;;;;;;;5.39;100.00;102064.22;6134787;23;20040;-75
2022/10/20 04:10:16;;;;;;;9.93;3.90;;;;;;;5.44;100.00;102064.81;6135523;23;20006;-75
2022/10/20 04:12:41;;;;;;;13.82;3.70;;;;;;;5.53;100.00;102069.59;6135428;23;20053;-75
2022/10/20 04:15:07;;;;;;;11.77;3.47;;;;;;;5.49;100.00;102068.09;6135005;23;20388;-75
2022/10/20 04:17:33;;;;;;;10.38;3.95;;;;;;;5.47;100.00;102064.59;6134955;23;19997;-75
2022/10/20 04:19:58;;;;;;;8.57;4.85;;;;;;;5.34;100.00;102063.63;6161174;23;20005;-75
2022/10/20 04:22:24;;;;;;;11.23;4.95;;;;;;;5.52;100.00;102062.50;6135437;23;20002;-72
2022/10/20 04:24:49;;;;;;;11.50;4.60;;;;;;;5.25;100.00;102061.53;6135062;23;20544;-74
2022/10/20 04:27:15;;;;;;;10.40;4.82;;;;;;;5.44;100.00;102060.31;6134520;23;20006;-73
2022/10/20 04:29:40;;;;;;;11.43;3.75;;;;;;;5.41;100.00;102054.25;6135036;23;20005;-73
2022/10/20 04:32:06;;;;;;;17.52;4.85;;;;;;;5.39;100.00;102050.78;6135360;23;20086;-75
2022/10/20 04:34:31;;;;;;;12.52;4.15;;;;;;;5.37;100.00;102058.09;6161269;23;20029;-74
2022/10/20 04:36:57;;;;;;;13.48;5.32;;;;;;;5.31;100.00;102053.97;6135107;23;20080;-74
2022/10/20 04:39:24;;;;;;;11.50;4.93;;;;;;;5.20;100.00;102045.72;6161275;23;20033;-74
2022/10/20 04:41:49;;;;;;;10.05;5.13;;;;;;;5.26;100.00;102049.84;6135013;23;20002;-75
2022/10/20 04:44:15;;;;;;;26.25;5.57;;;;;;;5.27;100.00;102046.19;6161274;23;20024;-73
2022/10/20 04:46:40;;;;;;;10.75;5.25;;;;;;;5.26;100.00;102039.09;6161040;23;20083;-73
2022/10/20 04:49:05;;;;;;;18.65;5.45;;;;;;;5.26;100.00;102039.09;6135050;23;20013;-73
2022/10/20 04:51:31;;;;;;;7.65;4.70;;;;;;;5.29;100.00;102036.25;6135054;23;20005;-73
2022/10/20 04:53:56;;;;;;;16.05;5.78;;;;;;;5.10;100.00;102029.31;6135233;23;20081;-73
2022/10/20 04:56:22;;;;;;;18.60;5.95;;;;;;;5.16;100.00;102028.94;6134899;23;20005;-72
2022/10/20 04:58:48;;;;;;;15.45;5.60;;;;;;;5.12;100.00;102026.53;6134894;23;20041;-73
2022/10/20 05:01:14;;;;;;;12.55;5.93;;;;;;;5.07;100.00;102018.75;6161336;23;20008;-73
2022/10/20 05:03:39;;;;;;;11.85;5.50;;;;;;;5.05;100.00;102020.69;6135469;23;20005;-72
2022/10/20 05:06:15;;;;;;;15.68;6.45;;;;;;;4.96;100.00;102015.88;6162051;23;20005;-74
2022/10/20 05:08:41;;;;;;;14.43;5.88;;;;;;;5.14;100.00;102006.66;6135335;23;19997;-74
2022/10/20 05:11:07;;;;;;;16.25;6.15;;;;;;;5.02;100.00;102010.16;6161126;23;20005;-74
2022/10/20 05:13:33;;;;;;;13.30;6.68;;;;;;;5.02;100.00;101994.03;6161733;23;20060;-75
2022/10/20 05:15:58;;;;;;;10.25;6.13;;;;;;;5.00;100.00;101990.56;6135312;23;20040;-74
2022/10/20 05:18:23;;;;;;;14.38;5.75;;;;;;;4.87;100.00;101989.59;6135156;23;20005;-74
2022/10/20 05:20:48;;;;;;;16.23;5.53;;;;;;;5.02;100.00;101977.94;6135005;23;20333;-75
2022/10/20 05:23:14;;;;;;;11.90;5.70;;;;;;;5.07;100.00;101974.94;6135154;23;20096;-75
2022/10/20 05:25:39;;;;;;;17.23;6.25;;;;;;;5.03;100.00;101968.91;6134759;23;20484;-75
2022/10/20 05:28:05;;;;;;;12.88;6.55;;;;;;;5.02;100.00;101967.19;6134424;23;20036;-75
2022/10/20 05:30:32;;;;;;;17.20;6.18;;;;;;;5.06;100.00;101963.34;6134410;23;20005;-74
2022/10/20 05:32:58;;;;;;;9.90;6.22;;;;;;;5.27;100.00;101960.25;6135167;23;20167;-75
2022/10/20 05:35:23;;;;;;;16.27;6.40;;;;;;;5.16;100.00;101959.13;6134629;23;20033;-75
2022/10/20 05:37:48;;;;;;;12.93;6.15;;;;;;;5.12;100.00;101957.59;6160532;23;19997;-74
2022/10/20 05:40:14;;;;;;;19.10;5.63;;;;;;;5.09;100.00;101955.13;6134518;23;20037;-74
2022/10/20 05:42:39;;;;;;;13.57;6.18;;;;;;;5.20;100.00;101961.63;6134561;23;20102;-74
2022/10/20 05:45:05;;;;;;;12.98;5.75;;;;;;;5.22;100.00;101943.59;6134519;23;20079;-74
2022/10/20 05:47:31;;;;;;;13.88;6.63;;;;;;;5.17;100.00;101942.06;6159905;23;19997;-74
2022/10/20 05:49:56;;;;;;;14.38;6.93;;;;;;;5.12;100.00;101936.13;6160561;23;20092;-75
2022/10/20 05:52:21;;;;;;;18.13;6.68;;;;;;;5.21;100.00;101934.66;6160565;23;20033;-74
2022/10/20 05:54:47;;;;;;;13.73;6.78;;;;;;;5.18;100.00;101949.16;6134831;23;20348;-74
2022/10/20 05:57:12;;;;;;;15.60;6.90;;;;;;;5.11;100.00;101939.75;6160393;23;20029;-75
2022/10/20 05:59:37;;;;;;;15.75;6.95;;;;;;;5.26;100.00;101934.38;6134320;23;20024;-74
2022/10/20 06:02:03;;;;;;;13.77;6.30;;;;;;;5.21;100.00;101933.81;6133978;23;20014;-75
2022/10/20 06:04:29;;;;;;;20.15;7.18;;;;;;;5.20;100.00;101937.44;6134323;23;19997;-73
2022/10/20 06:06:55;;;;;;;12.57;7.45;;;;;;;5.14;100.00;101939.56;6133827;23;20313;-75
2022/10/20 06:09:23;;;;;;;20.88;7.30;;;;;;;5.31;100.00;101934.94;6134409;23;20001;-74
2022/10/20 06:11:49;;;;;;;14.15;7.00;;;;;;;5.26;100.00;101937.06;6135069;23;20029;-75
2022/10/20 06:14:16;;;;;;;17.40;7.53;;;;;;;5.29;100.00;101942.25;6162518;23;20010;-74
2022/10/20 06:16:41;;;;;;;14.05;6.82;;;;;;;5.26;100.00;101931.69;6136740;23;19997;-71
2022/10/20 06:19:07;;;;;;;17.35;7.30;;;;;;;5.31;100.00;101929.56;6162570;23;20009;-69
2022/10/20 06:21:36;;;;;;;26.65;7.70;;;;;;;5.30;100.00;101922.50;6162229;23;20238;-72
2022/10/20 06:24:03;;;;;;;16.55;7.43;;;;;;;5.34;100.00;101929.38;6136092;23;20092;-71
2022/10/20 06:26:33;;;;;;;14.77;6.70;;;;;;;5.32;100.00;101917.88;6135902;23;20372;-71
2022/10/20 06:28:59;;;;;;;21.60;6.80;;;;;;;5.48;100.00;101926.69;6136256;23;20005;-71
2022/10/20 06:31:27;;;;;;;21.23;6.43;;;;;;;5.38;100.00;101920.16;6136122;23;20025;-70
2022/10/20 06:33:53;;;;;;;18.50;6.82;;;;;;;5.46;100.00;101917.84;6136617;23;20036;-71
2022/10/20 06:36:20;;;;;;;18.05;5.68;;;;;;;5.43;100.00;101926.09;6135758;23;20028;-71
2022/10/20 06:38:46;;;;;;;12.50;6.63;;;;;;;5.48;100.00;101936.53;6136232;23;20002;-71
2022/10/20 06:41:14;;;;;;;11.45;5.80;;;;;;;5.47;100.00;101935.69;6135689;23;19998;-71
2022/10/20 06:43:39;;;;;;;12.98;5.93;;;;;;;5.60;100.00;101931.22;6135967;23;20013;-71
2022/10/20 06:46:07;;;;;;;21.50;5.30;;;;;;;5.58;100.00;101933.16;6135723;23;20057;-69
2022/10/20 06:48:34;;;;;;;12.43;5.28;;;;;;;5.70;100.00;101936.88;6137353;23;20044;-72
2022/10/20 06:51:01;;;;;;;11.55;5.30;;;;;;;5.81;100.00;101938.88;6162263;23;20012;-71
2022/10/20 06:53:28;;;;;;;16.58;4.97;;;;;;;5.99;100.00;101937.66;6135506;23;20021;-69
2022/10/20 06:56:03;;;;;;;16.40;6.13;;;;;;;5.87;100.00;101927.72;6124903;23;19997;-69
2022/10/20 06:58:28;;;;;;;10.23;5.03;;;;;;;5.97;100.00;101934.22;6129195;23;20002;-68
2022/10/20 07:01:15;;;;;;;18.48;5.03;;;;;;;6.11;100.00;101930.59;6127667;23;20008;-72
2022/10/20 07:03:41;;;;;;;8.07;4.20;;;;;;;6.17;100.00;101931.03;6129719;23;20036;-71
2022/10/20 07:06:09;;;;;;;9.93;4.97;;;;;;;6.18;100.00;101935.44;6154793;23;20057;-70
2022/10/20 07:08:35;;;;;;;10.75;5.63;;;;;;;6.33;100.00;101930.03;6154592;23;20092;-71
2022/10/20 07:11:03;;;;;;;12.18;3.88;;;;;;;6.44;100.00;101932.81;6129848;23;20005;-71
2022/10/20 07:13:29;;;;;;;9.82;4.53;;;;;;;6.48;100.00;101928.97;6154763;23;20064;-72
2022/10/20 07:15:56;;;;;;;15.73;3.95;;;;;;;6.71;100.00;101914.75;6128931;23;19998;-68
2022/10/20 07:18:22;;;;;;;11.30;4.28;;;;;;;6.79;100.00;101916.94;6132633;23;20025;-70
2022/10/20 07:20:48;;;;;;;8.80;4.40;;;;;;;6.91;100.00;101925.94;6157381;23;20008;-72
2022/10/20 07:23:13;;;;;;;14.93;4.50;;;;;;;6.91;100.00;101925.94;6131793;23;20062;-71
2022/10/20 07:25:38;;;;;;;11.88;3.60;;;;;;;7.06;100.00;101924.88;6130885;23;20064;-72
2022/10/20 07:28:04;;;;;;;14.02;3.58;;;;;;;7.32;100.00;101921.16;6130418;23;20436;-68
2022/10/20 07:30:29;;;;;;;9.90;3.92;;;;;;;7.28;100.00;101914.25;6132171;23;20005;-71
2022/10/20 07:32:55;;;;;;;9.32;3.97;;;;;;;7.43;100.00;101911.41;6130733;23;19997;-69
2022/10/20 07:35:20;;;;;;;9.20;3.78;;;;;;;7.60;99.71;101908.34;6158291;23;20076;-70
2022/10/20 07:37:45;;;;;;;14.23;3.55;;;;;;;7.60;100.00;101892.16;6157581;23;20005;-70
2022/10/20 07:40:11;;;;;;;10.63;4.70;;;;;;;7.63;99.92;101886.56;6157764;23;19997;-68
2022/10/20 07:42:36;;;;;;;9.85;3.92;;;;;;;7.66;99.67;101880.94;6132083;23;20021;-70
2022/10/20 07:45:01;;;;;;;11.07;3.83;;;;;;;7.84;99.16;101863.38;6132737;23;20098;-70
2022/10/20 07:47:27;;;;;;;10.18;4.45;;;;;;;7.78;98.91;101863.84;6134814;23;20001;-71
2022/10/20 07:49:52;;;;;;;10.70;4.90;;;;;;;7.84;98.84;101859.81;6159795;23;20024;-71
2022/10/20 07:52:18;;;;;;;11.50;3.53;;;;;;;7.92;98.03;101853.84;6133895;23;20048;-68
2022/10/20 07:54:43;;;;;;;11.80;3.70;;;;;;;7.91;98.10;101858.38;6134342;23;20002;-73
2022/10/20 07:57:09;;;;;;;13.32;3.60;;;;;;;7.99;97.59;101860.50;6133503;23;20048;-70
2022/10/20 07:59:34;;;;;;;8.70;3.38;;;;;;;8.14;97.17;101859.31;6134443;23;20009;-69
2022/10/20 08:02:00;;;;;;;13.57;3.72;;;;;;;8.23;97.52;101852.34;6134455;23;20047;-74
2022/10/20 08:04:26;;;;;;;10.38;2.80;;;;;;;8.28;96.81;101844.72;6133789;23;20048;-71
2022/10/20 08:06:52;;;;;;;8.30;2.85;;;;;;;8.33;96.73;101838.00;6134307;23;20428;-69
2022/10/20 08:09:17;;;;;;;9.07;3.30;;;;;;;8.47;95.93;101844.19;6133782;23;20014;-70
2022/10/20 08:11:43;;;;;;;6.32;2.80;;;;;;;8.45;95.73;101846.16;6134083;23;19997;-69
2022/10/20 08:14:08;;;;;;;10.45;3.08;;;;;;;8.42;95.74;101848.13;6134438;23;20051;-71
2022/10/20 08:16:33;;;;;;;8.15;3.03;;;;;;;8.73;95.12;101829.47;6133328;23;20048;-71
2022/10/20 08:18:59;;;;;;;13.55;2.72;;;;;;;8.74;94.69;101820.44;6135557;23;20005;-71
2022/10/20 08:21:25;;;;;;;15.85;3.20;;;;;;;8.83;94.77;101814.28;6133915;23;20053;-71
2022/10/20 08:23:51;;;;;;;8.23;3.53;;;;;;;9.00;93.95;101812.91;6134389;23;20013;-69
2022/10/20 08:26:23;;;;;;;12.40;3.55;;;;;;;9.06;93.61;101819.63;6133805;23;20009;-71
2022/10/20 08:28:50;;;;;;;16.77;3.92;;;;;;;9.20;92.71;101811.28;6134133;23;20005;-71
2022/10/20 08:31:16;;;;;;;7.32;2.92;;;;;;;9.15;92.56;101803.53;6134528;23;20059;-67
2022/10/20 08:33:41;;;;;;;10.90;3.30;;;;;;;9.38;91.41;101788.09;6133962;23;20053;-68
2022/10/20 08:36:09;;;;;;;9.27;2.72;;;;;;;9.38;91.32;101782.69;6132970;23;20021;-71
2022/10/20 08:38:37;;;;;;;10.18;2.63;;;;;;;9.49;91.19;101779.13;6134846;23;20005;-73
2022/10/20 08:41:05;;;;;;;7.75;2.70;;;;;;;9.57;89.92;101770.34;6133783;23;20049;-71
2022/10/20 08:43:35;;;;;;;7.50;2.60;;;;;;;9.76;89.51;101767.81;6133151;23;20002;-70
2022/10/20 08:46:01;;;;;;;9.15;2.35;;;;;;;9.71;89.33;101772.72;6133991;23;20009;-68
2022/10/20 08:48:31;;;;;;;5.10;2.28;;;;;;;9.69;89.23;101769.31;6133744;23;19998;-69
2022/10/20 08:50:57;;;;;;;9.45;3.08;;;;;;;9.68;88.71;101773.00;6131323;23;20001;-71
2022/10/20 08:53:26;;;;;;;5.97;2.40;;;;;;;9.71;88.96;101751.09;6133980;23;20032;-69
2022/10/20 08:55:54;;;;;;;12.82;3.15;;;;;;;9.83;88.04;101755.47;6158969;23;20005;-72
2022/10/20 08:58:22;;;;;;;10.07;2.70;;;;;;;9.73;88.25;101749.16;6132641;23;19997;-72
2022/10/20 09:00:54;;;;;;;7.82;2.20;;;;;;;9.89;88.55;101749.53;6156332;23;19998;-72
2022/10/20 09:03:28;;;;;;;8.48;2.83;;;;;;;9.89;87.17;101749.53;6159784;23;20084;-71
2022/10/20 09:06:01;;;;;;;9.75;2.17;;;;;;;10.09;87.01;101744.22;6132345;23;20058;-72
2022/10/20 09:08:30;;;;;;;7.32;2.30;;;;;;;10.16;86.50;101740.00;6130619;23;20013;-71
2022/10/20 09:10:56;;;;;;;8.73;2.30;;;;;;;10.25;85.62;101733.84;6131185;23;20008;-71
2022/10/20 09:13:26;;;;;;;7.35;2.65;;;;;;;10.41;85.35;101739.59;6157387;23;20025;-71
2022/10/20 09:16:00;;;;;;;6.30;2.53;;;;;;;10.30;84.98;101737.84;6130838;23;19998;-71
2022/10/20 09:18:26;;;;;;;9.02;2.63;;;;;;;10.38;84.76;101739.88;6119074;23;20307;-71
2022/10/20 09:20:56;;;;;;;8.40;2.38;;;;;;;10.63;83.77;101726.84;6127957;23;20001;-73
2022/10/20 09:23:46;;;;;;;4.78;2.03;;;;;;;10.41;84.43;101723.34;6133670;23;20001;-71
2022/10/20 09:26:26;;;;;;;9.15;2.55;;;;;;;10.54;83.83;101710.44;6130925;23;20077;-71
2022/10/20 09:29:06;;;;;;;9.38;2.42;;;;;;;10.63;83.36;101705.16;6156939;23;20093;-69
2022/10/20 09:31:33;;;;;;;12.65;2.95;;;;;;;10.28;84.29;101695.66;6130130;23;20440;-70
2022/10/20 09:33:59;;;;;;;9.27;2.42;;;;;;;10.16;84.09;101707.53;6131474;23;20012;-69
2022/10/20 09:36:36;;;;;;;12.35;2.40;;;;;;;10.42;83.87;101714.22;6132131;23;20076;-69
2022/10/20 09:39:01;;;;;;;5.30;2.28;;;;;;;10.49;83.67;101693.72;6134576;23;20040;-69
2022/10/20 09:41:42;;;;;;;8.50;2.58;;;;;;;10.57;83.64;101691.22;6130918;23;20440;-68
2022/10/20 09:44:22;;;;;;;14.13;2.30;;;;;;;10.81;82.26;101703.50;6131364;23;20005;-71
2022/10/20 09:46:51;;;;;;;8.55;2.10;;;;;;;10.93;82.03;101696.97;6158340;23;20005;-70
2022/10/20 09:49:33;;;;;;;5.82;1.92;;;;;;;11.08;81.82;101701.00;6130656;23;20016;-72
2022/10/20 09:52:03;;;;;;;8.32;2.67;;;;;;;11.18;81.41;101711.00;6131055;23;20005;-71
2022/10/20 09:54:29;;;;;;;7.30;2.42;;;;;;;10.97;81.81;101702.97;6131221;23;20012;-67
2022/10/20 09:57:07;;;;;;;15.63;3.42;;;;;;;11.19;80.31;101707.28;6159144;23;19998;-69
2022/10/20 09:59:36;;;;;;;7.88;2.40;;;;;;;11.40;80.18;101713.41;6133063;23;20005;-68
2022/10/20 10:02:22;;;;;;;6.28;2.22;;;;;;;11.72;79.30;101707.66;6132088;23;20001;-68
2022/10/20 10:04:50;;;;;;;11.25;2.53;;;;;;;11.89;78.43;101700.69;6132175;23;20483;-69
2022/10/20 10:07:25;;;;;;;7.90;2.10;;;;;;;12.06;78.16;101708.06;6130188;23;20001;-69
2022/10/20 10:10:00;;;;;;;10.95;2.45;;;;;;;12.08;77.61;101695.19;6131672;23;20012;-70
2022/10/20 10:12:28;;;;;;;7.35;2.60;;;;;;;11.85;77.22;101688.41;6158982;23;20024;-72
2022/10/20 10:14:57;;;;;;;11.40;2.70;;;;;;;11.81;77.06;101676.16;6134753;23;20005;-76
2022/10/20 10:17:35;;;;;;;8.65;2.25;;;;;;;11.75;77.56;101687.56;6131991;23;19998;-69
2022/10/20 10:20:06;;;;;;;14.25;2.55;;;;;;;11.79;77.10;101699.81;6131413;23;20048;-69
2022/10/20 10:22:34;;;;;;;4.93;2.20;;;;;;;11.86;77.23;101684.69;6129735;23;20006;-69
2022/10/20 10:25:01;;;;;;;3.17;2.05;;;;;;;12.05;76.37;101676.47;6130101;23;20009;-69
2022/10/20 10:27:32;;;;;;;4.68;2.00;;;;;;;12.16;76.72;101670.88;6128453;23;20009;-69
2022/10/20 10:30:23;;;;;;;6.85;2.15;;;;;;;12.58;75.33;101670.38;6132729;23;20463;-70
2022/10/20 10:32:48;;;;;;;9.95;1.98;;;;;;;12.92;74.68;101661.59;6155896;23;20076;-69
2022/10/20 10:35:32;;;;;;;7.00;2.50;;;;;;;12.67;74.29;101655.88;6156258;23;20433;-69
2022/10/20 10:37:59;;;;;;;3.75;2.00;;;;;;;12.89;73.57;101640.13;6128369;23;20037;-69
2022/10/20 10:40:58;;;;;;;4.90;2.10;;;;;;;12.85;73.21;101633.31;6155224;23;20425;-69
2022/10/20 10:43:32;;;;;;;10.02;2.30;;;;;;;12.77;73.01;101626.78;6130484;23;20014;-69
2022/10/20 10:46:13;;;;;;;5.40;2.28;;;;;;;13.10;73.36;101632.53;6131485;23;20467;-69
2022/10/20 10:48:45;;;;;;;5.13;2.75;;;;;;;13.37;72.19;101628.06;6132391;23;20009;-70
2022/10/20 10:51:35;;;;;;;6.80;2.58;;;;;;;13.04;71.96;101622.31;6131887;23;20001;-69
2022/10/20 10:54:25;;;;;;;6.88;2.42;;;;;;;13.57;71.25;101607.78;6130933;23;20001;-70
2022/10/20 10:56:59;;;;;;;4.75;2.40;;;;;;;14.16;70.96;101614.25;6130359;23;20099;-69
2022/10/20 10:59:31;;;;;;;12.38;2.75;;;;;;;14.09;69.98;101613.19;6158893;23;20381;-70
2022/10/20 11:02:18;;;;;;;11.52;3.08;;;;;;;13.37;71.54;101600.84;6157129;23;20002;-70
2022/10/20 11:05:19;;;;;;;7.25;2.35;;;;;;;13.09;72.02;101603.63;6156122;23;20077;-70
2022/10/20 11:07:50;;;;;;;11.18;2.50;;;;;;;13.01;72.89;101600.84;6136254;23;20040;-75
2022/10/20 11:10:27;;;;;;;7.68;2.80;;;;;;;13.30;72.14;101585.16;6161575;23;20040;-75
2022/10/20 11:13:16;;;;;;;8.95;3.03;;;;;;;13.42;71.71;101582.16;6155446;23;19997;-75
2022/10/20 11:15:44;;;;;;;7.80;2.28;;;;;;;13.75;71.73;101567.72;6157050;23;19998;-76
2022/10/20 11:18:28;;;;;;;14.68;2.78;;;;;;;14.13;70.03;101560.09;6131369;23;20057;-75
2022/10/20 11:21:17;;;;;;;8.90;3.60;;;;;;;13.93;69.67;101558.66;6153785;23;20008;-76
2022/10/20 11:24:09;;;;;;;6.82;2.95;;;;;;;13.47;71.25;101553.47;6129821;23;20010;-75
2022/10/20 11:26:43;;;;;;;5.88;2.92;;;;;;;13.95;70.12;101559.31;6131580;23;20001;-76
2022/10/20 11:29:19;;;;;;;5.30;2.70;;;;;;;13.83;70.13;101548.75;6132386;23;20068;-75
2022/10/20 11:32:01;;;;;;;8.02;3.03;;;;;;;14.21;69.96;101546.47;6131548;23;20004;-76
2022/10/20 11:34:34;;;;;;;10.80;2.95;;;;;;;14.15;69.03;101546.28;6131655;23;20077;-76